TNCE/EUX METAR and TAF weather

Enter ICAO airport designator
Station Type Date Time Source
TNCE METAR 2020/09/25 07:55 UTC NOAA

TNCE 250755Z AUTO VRB02KT //// // ///////// 26/24 Q1015 RE//


Station Type Date Time Source
TNCE Decoded METAR 2020/09/25 07:55 UTC NOAA

Roosevelt Airport Saint Eustatius, Netherlands Antilles (TNCE) 17-29N 062-59W 39M
Sep 25, 2020 - 03:55 AM EDT / 2020.09.25 0755 UTC
Wind: Variable at 2 MPH (2 KT):0
Temperature: 78 F (26 C)
Dew Point: 75 F (24 C)
Relative Humidity: 88%
Pressure (altimeter): 29.97 in. Hg (1015 hPa)
ob: TNCE 250755Z AUTO VRB02KT //// // ///////// 26/24 Q1015 RE//
cycle: 8

Station Type Date Time Source
TNCE TAF UTC NOAA

Error!

Example: see airport list